Time;durP1;ratioP1;P1;durP2;ratioP2;P2;SDS_P1;SDS_P2;PMS_P1;PMS_P2;Temp;Humidity;BMP_temperature;BMP_pressure;BME280_temperature;BME280_humidity;BME280_pressure;Samples;Min_cycle;Max_cycle;Signal;HPM_P1;HPM_P2
2023/12/13 00:01:34;;;;;;;11.27;4.07;;;;;;;-146.27;92.01;32926.31;5090981;28;20063;-69
2023/12/13 00:04:00;;;;;;;10.77;4.40;;;;;;;-146.27;92.20;32888.63;5091524;28;20543;-68
2023/12/13 00:06:25;;;;;;;10.20;4.35;;;;;;;-146.27;92.08;32862.84;5103330;28;20024;-67
2023/12/13 00:08:50;;;;;;;13.05;4.53;;;;;;;-146.27;92.58;32858.88;5092246;28;20069;-69
2023/12/13 00:11:16;;;;;;;10.98;5.35;;;;;;;-146.27;92.74;32918.38;5088701;28;20043;-68
2023/12/13 00:13:41;;;;;;;14.43;5.55;;;;;;;-146.27;92.23;32831.09;5094948;28;20060;-70
2023/12/13 00:16:08;;;;;;;17.20;5.95;;;;;;;-146.27;91.76;32848.94;5096275;28;20032;-68
2023/12/13 00:18:33;;;;;;;14.55;6.05;;;;;;;-146.27;91.62;32854.91;5093615;28;20023;-68
2023/12/13 00:20:59;;;;;;;14.07;6.18;;;;;;;-146.27;91.67;32878.72;5077523;28;20032;-68
2023/12/13 00:23:24;;;;;;;13.80;6.45;;;;;;;-146.27;91.94;32833.06;5089840;28;20123;-70
2023/12/13 00:25:49;;;;;;;17.42;7.32;;;;;;;-146.27;92.93;32892.59;5089244;28;20143;-69
2023/12/13 00:28:15;;;;;;;16.85;8.13;;;;;;;-146.27;92.26;32886.63;5073039;28;20082;-68
2023/12/13 00:30:40;;;;;;;18.98;8.57;;;;;;;-146.27;92.25;32890.59;5090870;28;20534;-69
2023/12/13 00:33:05;;;;;;;21.23;9.52;;;;;;;-146.27;93.04;32932.28;5088049;28;20115;-67
2023/12/13 00:35:31;;;;;;;19.67;9.32;;;;;;;-146.27;92.58;32894.56;5091598;28;20376;-69
2023/12/13 00:37:56;;;;;;;27.13;10.02;;;;;;;-146.27;92.68;32882.66;5092869;28;20161;-69
2023/12/13 00:40:22;;;;;;;18.67;9.63;;;;;;;-146.27;93.11;32936.25;5093274;28;20049;-69
2023/12/13 00:42:50;;;;;;;18.27;10.27;;;;;;;-146.27;93.15;32894.56;5095527;28;20024;-69
2023/12/13 00:45:16;;;;;;;18.27;10.00;;;;;;;-146.27;92.63;32882.66;5102016;28;20035;-68
2023/12/13 00:47:41;;;;;;;23.05;9.77;;;;;;;-146.27;92.92;32894.56;5103140;28;20441;-68
2023/12/13 00:50:08;;;;;;;20.73;9.77;;;;;;;-146.27;92.73;32864.81;5092382;28;20238;-69
2023/12/13 00:52:33;;;;;;;22.33;10.73;;;;;;;-146.27;92.44;32846.97;5087131;28;20400;-69
2023/12/13 00:55:04;;;;;;;26.10;10.88;;;;;;;-146.27;92.15;32843.00;5087594;28;20036;-69
2023/12/13 00:57:32;;;;;;;16.90;9.50;;;;;;;-146.27;91.69;32819.19;5089456;28;20422;-67
2023/12/13 00:59:57;;;;;;;22.30;10.65;;;;;;;-146.27;91.46;32807.28;5085355;28;20043;-67
2023/12/13 01:02:22;;;;;;;18.98;9.80;;;;;;;-146.27;91.62;32813.25;5100875;28;20055;-68
2023/12/13 01:04:48;;;;;;;18.95;10.60;;;;;;;-146.27;92.01;32872.75;5098567;28;20024;-68
2023/12/13 01:07:13;;;;;;;16.80;9.95;;;;;;;-146.27;93.18;32960.03;5098419;28;20464;-66
2023/12/13 01:09:39;;;;;;;18.17;11.38;;;;;;;-146.27;92.40;32839.03;5094014;28;20024;-68
2023/12/13 01:12:05;;;;;;;16.73;9.82;;;;;;;-146.27;92.44;32910.44;5093035;28;20054;-67
2023/12/13 01:14:31;;;;;;;17.65;9.73;;;;;;;-146.27;92.40;32843.00;5087544;28;20031;-67
2023/12/13 01:16:56;;;;;;;19.02;10.05;;;;;;;-146.27;91.89;32862.84;5074257;28;20043;-67
2023/12/13 01:19:22;;;;;;;17.63;10.25;;;;;;;-146.27;92.04;32858.88;5096856;28;20054;-68
2023/12/13 01:21:47;;;;;;;24.85;9.88;;;;;;;-146.27;92.79;32926.31;5094757;28;20481;-68
2023/12/13 01:24:12;;;;;;;18.35;9.13;;;;;;;-146.27;93.11;32930.28;5092056;28;20367;-68
2023/12/13 01:26:38;;;;;;;21.00;9.23;;;;;;;-146.27;92.51;32844.97;5089169;28;20526;-67
2023/12/13 01:29:03;;;;;;;18.50;9.52;;;;;;;-146.27;92.43;32878.72;5100817;28;20472;-68
2023/12/13 01:31:28;;;;;;;15.30;8.18;;;;;;;-146.27;92.03;32846.97;5078567;28;20036;-67
2023/12/13 01:33:54;;;;;;;17.48;7.50;;;;;;;-146.27;91.78;32848.94;5098707;28;20023;-68
2023/12/13 01:36:19;;;;;;;21.65;7.72;;;;;;;-146.27;91.56;32813.25;5087991;28;20020;-68
2023/12/13 01:38:44;;;;;;;21.63;7.85;;;;;;;-146.27;91.39;32864.81;5084385;28;20031;-67
2023/12/13 01:41:10;;;;;;;19.20;8.48;;;;;;;-146.27;92.08;32852.91;5085143;28;20367;-68
2023/12/13 01:43:35;;;;;;;13.05;6.50;;;;;;;-146.27;92.45;32898.53;5088259;28;20686;-67
2023/12/13 01:46:01;;;;;;;14.18;6.45;;;;;;;-146.27;92.36;32811.25;5089259;28;20038;-68
2023/12/13 01:48:27;;;;;;;10.00;6.40;;;;;;;-146.27;92.73;32914.41;5090293;28;20047;-67
2023/12/13 01:50:55;;;;;;;10.70;6.32;;;;;;;-146.27;92.50;32868.78;5088956;28;20376;-67
2023/12/13 01:53:22;;;;;;;12.38;5.70;;;;;;;-146.27;91.70;32819.19;5110180;28;20020;-67
2023/12/13 01:55:47;;;;;;;12.20;6.70;;;;;;;-146.27;91.09;32720.00;5088566;28;20494;-68
2023/12/13 01:58:15;;;;;;;14.02;6.00;;;;;;;-146.27;91.04;32787.44;5089644;28;20028;-69
2023/12/13 02:00:42;;;;;;;15.18;6.63;;;;;;;-146.27;91.38;32862.84;5098951;28;20025;-68
2023/12/13 02:03:09;;;;;;;12.27;7.05;;;;;;;-146.27;91.90;32934.25;5095377;28;20054;-68
2023/12/13 02:05:36;;;;;;;11.85;7.30;;;;;;;-146.27;92.58;32882.66;5101734;28;20028;-68
2023/12/13 02:08:02;;;;;;;13.60;6.95;;;;;;;-146.27;92.28;32910.44;5093316;28;20024;-68
2023/12/13 02:10:27;;;;;;;14.90;6.82;;;;;;;-146.27;93.23;33025.50;5098122;28;20027;-68
2023/12/13 02:12:53;;;;;;;13.35;7.28;;;;;;;-146.27;92.76;32926.31;5089917;28;20020;-69
2023/12/13 02:15:20;;;;;;;12.93;6.35;;;;;;;-146.27;91.46;32751.75;5104020;28;20057;-70
2023/12/13 02:17:49;;;;;;;14.05;6.70;;;;;;;-146.27;91.80;32787.44;5093759;28;20046;-68
2023/12/13 02:20:15;;;;;;;13.40;7.45;;;;;;;-146.27;91.58;32827.13;5102098;28;20031;-69
2023/12/13 02:22:40;;;;;;;17.77;7.57;;;;;;;-146.27;91.14;32839.03;5113384;28;20431;-69
2023/12/13 02:25:14;;;;;;;15.13;7.80;;;;;;;-146.27;91.37;32815.22;5095613;28;20027;-69
2023/12/13 02:27:39;;;;;;;13.13;8.43;;;;;;;-146.27;91.18;32785.47;5106588;28;20032;-69
2023/12/13 02:30:07;;;;;;;15.23;8.60;;;;;;;-146.27;90.42;32783.47;5109046;28;20054;-68
2023/12/13 02:32:32;;;;;;;17.92;8.68;;;;;;;-146.27;90.56;32841.00;5093791;28;20027;-71
2023/12/13 02:34:57;;;;;;;19.80;9.90;;;;;;;-146.27;90.72;32839.03;5086125;28;20055;-69
2023/12/13 02:37:23;;;;;;;12.98;8.82;;;;;;;-146.27;90.40;32819.19;5097020;28;20028;-69
2023/12/13 02:39:49;;;;;;;19.77;9.57;;;;;;;-146.27;90.75;32831.09;5092273;28;20041;-68
2023/12/13 02:42:14;;;;;;;19.60;9.60;;;;;;;-146.27;90.82;32852.91;5093106;28;20040;-69
2023/12/13 02:44:42;;;;;;;14.48;9.13;;;;;;;-146.27;90.49;32831.09;5092107;28;20476;-68
2023/12/13 02:47:08;;;;;;;25.92;9.75;;;;;;;-146.27;90.16;32785.47;5093399;28;20024;-68
2023/12/13 02:49:33;;;;;;;16.73;9.02;;;;;;;-146.27;90.26;32846.97;5092385;28;20039;-70
2023/12/13 02:51:59;;;;;;;14.30;8.70;;;;;;;-146.27;90.51;32799.34;5092953;28;20020;-68
2023/12/13 02:54:24;;;;;;;18.30;8.73;;;;;;;-146.27;90.26;32797.38;5108216;28;20047;-69
2023/12/13 02:56:49;;;;;;;14.70;7.97;;;;;;;-146.27;90.22;32817.19;5097546;28;20028;-68
2023/12/13 02:59:15;;;;;;;15.00;8.55;;;;;;;-146.27;90.27;32882.66;5093873;28;20073;-69
2023/12/13 03:01:40;;;;;;;12.57;7.43;;;;;;;-146.27;90.31;32815.22;5093102;28;20426;-68
2023/12/13 03:04:05;;;;;;;15.50;7.35;;;;;;;-146.27;90.16;32825.13;5092728;28;20031;-68
2023/12/13 03:06:31;;;;;;;19.58;8.10;;;;;;;-146.27;90.15;32854.91;5093410;28;20032;-68
2023/12/13 03:08:56;;;;;;;19.92;9.38;;;;;;;-146.27;90.36;32924.34;5102686;28;20016;-68
2023/12/13 03:11:21;;;;;;;19.45;8.77;;;;;;;-146.27;90.18;32910.44;5095885;28;20057;-67
2023/12/13 03:13:47;;;;;;;15.27;8.73;;;;;;;-146.27;90.37;32898.53;5092231;28;20036;-67
2023/12/13 03:16:12;;;;;;;13.63;9.10;;;;;;;-146.27;90.10;32926.31;5104062;28;20126;-68
2023/12/13 03:18:37;;;;;;;18.20;9.27;;;;;;;-146.27;90.34;32971.94;5104741;28;20039;-68
2023/12/13 03:21:03;;;;;;;18.52;9.38;;;;;;;-146.27;90.25;32934.25;5091970;28;20028;-67
2023/12/13 03:23:28;;;;;;;20.55;10.13;;;;;;;-146.27;90.28;32926.31;5098477;28;20024;-67
2023/12/13 03:25:53;;;;;;;17.63;11.10;;;;;;;-146.27;90.40;32960.03;5099222;28;20039;-69
2023/12/13 03:28:19;;;;;;;19.30;11.07;;;;;;;-146.27;90.30;32977.91;5099566;28;20024;-68
2023/12/13 03:30:44;;;;;;;18.23;10.35;;;;;;;-146.27;90.42;32999.72;5092501;28;20040;-67
2023/12/13 03:33:09;;;;;;;19.48;11.43;;;;;;;-146.27;90.40;32981.88;5092816;28;20024;-67
2023/12/13 03:35:35;;;;;;;24.90;13.30;;;;;;;-146.27;90.50;32973.94;5097872;28;20035;-66
2023/12/13 03:38:00;;;;;;;25.05;12.35;;;;;;;-146.27;90.56;32944.19;5092744;28;20058;-67
2023/12/13 03:40:26;;;;;;;26.17;13.63;;;;;;;-146.27;90.71;33031.47;5104222;28;20039;-67
2023/12/13 03:42:51;;;;;;;25.13;13.88;;;;;;;-146.27;90.63;32966.00;5095951;28;20030;-69
2023/12/13 03:45:16;;;;;;;27.83;13.48;;;;;;;-146.27;90.91;32973.94;5091798;28;20077;-69
2023/12/13 03:47:43;;;;;;;26.83;14.43;;;;;;;-146.27;90.77;33001.72;5093125;28;20082;-68
2023/12/13 03:50:08;;;;;;;31.98;14.43;;;;;;;-146.27;90.85;32973.94;5092066;28;20049;-68
2023/12/13 03:52:34;;;;;;;28.38;14.00;;;;;;;-146.27;90.90;32973.94;5092111;28;20477;-68
2023/12/13 03:54:59;;;;;;;28.48;14.65;;;;;;;-146.27;90.91;32966.00;5092247;28;20024;-68
2023/12/13 03:57:24;;;;;;;23.83;13.43;;;;;;;-146.27;90.95;32944.19;5078257;28;20036;-67
2023/12/13 03:59:50;;;;;;;30.58;15.05;;;;;;;-146.27;90.97;32938.22;5097340;28;20020;-67
2023/12/13 04:02:15;;;;;;;24.50;13.73;;;;;;;-146.27;90.94;32962.03;5101160;28;20032;-67
2023/12/13 04:04:40;;;;;;;29.30;15.35;;;;;;;-146.27;91.01;32932.28;5095491;28;20027;-67
2023/12/13 04:07:08;;;;;;;26.63;14.60;;;;;;;-146.27;91.09;32936.25;5100900;28;20035;-67
2023/12/13 04:09:33;;;;;;;23.88;14.05;;;;;;;-146.27;90.97;32938.22;5096565;28;20121;-67
2023/12/13 04:11:58;;;;;;;30.90;14.48;;;;;;;-146.27;91.04;32958.06;5093966;28;20464;-67
2023/12/13 04:14:24;;;;;;;32.58;15.02;;;;;;;-146.27;91.12;32914.41;5097815;28;20476;-68
2023/12/13 04:16:49;;;;;;;26.23;12.27;;;;;;;-146.27;91.07;32906.47;5110430;28;20067;-67
2023/12/13 04:19:15;;;;;;;26.75;12.88;;;;;;;-146.27;91.03;32934.25;5095722;28;20071;-69
2023/12/13 04:21:40;;;;;;;23.63;11.43;;;;;;;-146.27;91.47;32975.91;5098675;28;20027;-69
2023/12/13 04:24:06;;;;;;;25.70;9.88;;;;;;;-146.27;91.79;32946.16;5100160;28;20406;-69
2023/12/13 04:26:31;;;;;;;18.70;9.43;;;;;;;-146.27;91.61;32906.47;5092513;28;20032;-69
2023/12/13 04:28:57;;;;;;;14.63;8.15;;;;;;;-146.27;91.74;32958.06;5103517;28;20022;-69
2023/12/13 04:31:22;;;;;;;18.70;8.98;;;;;;;-146.27;91.88;32975.91;5106345;28;20062;-69
2023/12/13 04:33:47;;;;;;;14.57;8.23;;;;;;;-146.27;91.58;32954.09;5093877;28;20062;-69
2023/12/13 04:36:13;;;;;;;24.13;7.78;;;;;;;-146.27;91.73;32906.47;5091297;28;20043;-69
2023/12/13 04:38:38;;;;;;;15.60;7.70;;;;;;;-146.27;91.02;32880.69;5089823;28;20028;-69
2023/12/13 04:41:04;;;;;;;20.73;7.97;;;;;;;-146.27;91.55;32874.75;5101713;28;20031;-69
2023/12/13 04:43:29;;;;;;;18.40;7.60;;;;;;;-146.27;91.26;32892.59;5098116;28;20027;-70
2023/12/13 04:45:54;;;;;;;15.27;6.80;;;;;;;-146.27;91.06;32874.75;5091298;28;20034;-69
2023/12/13 04:48:20;;;;;;;21.92;7.20;;;;;;;-146.27;90.85;32894.56;5090561;28;20456;-70
2023/12/13 04:50:45;;;;;;;22.63;7.50;;;;;;;-146.27;91.09;32850.94;5090252;28;20387;-69
2023/12/13 04:53:10;;;;;;;17.38;8.05;;;;;;;-146.27;91.18;32906.47;5106563;28;20477;-69
2023/12/13 04:55:36;;;;;;;15.80;7.82;;;;;;;-146.27;91.29;32898.53;5098042;28;20051;-70
2023/12/13 04:58:01;;;;;;;15.23;8.05;;;;;;;-146.27;90.97;32866.81;5100103;27;20035;-69
2023/12/13 05:00:26;;;;;;;16.80;7.38;;;;;;;-146.27;90.98;32886.63;5097222;28;20027;-69
2023/12/13 05:02:52;;;;;;;17.55;8.00;;;;;;;-146.27;90.77;32872.75;5097183;28;20035;-69
2023/12/13 05:05:17;;;;;;;20.73;8.35;;;;;;;-146.27;90.64;32870.78;5097483;28;20023;-68
2023/12/13 05:07:43;;;;;;;22.05;8.02;;;;;;;-146.27;90.75;32860.84;5101809;28;20028;-68
2023/12/13 05:10:08;;;;;;;16.70;8.82;;;;;;;-146.27;90.78;32843.00;5090342;28;20502;-68
2023/12/13 05:12:33;;;;;;;16.95;7.80;;;;;;;-146.27;90.61;32862.84;5105390;28;20379;-72
2023/12/13 05:14:59;;;;;;;21.67;8.18;;;;;;;-146.27;90.66;32843.00;5090238;28;20051;-69
2023/12/13 05:17:24;;;;;;;23.15;8.55;;;;;;;-146.27;90.87;32860.84;5095934;28;20043;-68
2023/12/13 05:19:49;;;;;;;25.27;9.48;;;;;;;-146.27;90.96;32870.78;5104164;28;20024;-70
2023/12/13 05:22:15;;;;;;;26.17;8.98;;;;;;;-146.27;90.89;32874.75;5094782;28;20039;-69
2023/12/13 05:24:40;;;;;;;20.20;8.73;;;;;;;-146.27;90.77;32825.13;5097762;28;20020;-69
2023/12/13 05:27:05;;;;;;;21.33;9.95;;;;;;;-146.27;90.64;32813.25;5076913;28;20028;-68
2023/12/13 05:29:32;;;;;;;25.35;10.20;;;;;;;-146.27;90.68;32884.66;5090813;28;20170;-69
2023/12/13 05:31:58;;;;;;;18.33;9.63;;;;;;;-146.27;90.67;32870.78;5091020;28;20594;-69
2023/12/13 05:34:23;;;;;;;27.58;11.45;;;;;;;-146.27;90.88;32874.75;5100872;28;20016;-69
2023/12/13 05:36:48;;;;;;;22.70;10.98;;;;;;;-146.27;90.76;32852.91;5095338;28;20050;-69
2023/12/13 05:39:14;;;;;;;23.33;9.73;;;;;;;-146.27;90.74;32858.88;5098929;28;20031;-71
2023/12/13 05:41:39;;;;;;;19.73;10.13;;;;;;;-146.27;90.77;32846.97;5090168;28;20032;-68
2023/12/13 05:44:05;;;;;;;23.95;10.23;;;;;;;-146.27;90.69;32860.84;5091338;28;20104;-68
2023/12/13 05:46:34;;;;;;;20.00;10.50;;;;;;;-146.27;90.76;32856.88;5094341;28;20031;-68
2023/12/13 05:49:05;;;;;;;26.50;10.57;;;;;;;-146.27;90.97;32823.16;5093250;28;20020;-68
2023/12/13 05:51:30;;;;;;;30.45;10.75;;;;;;;-146.27;90.67;32902.50;5105885;28;20035;-69
2023/12/13 05:53:56;;;;;;;23.50;11.05;;;;;;;-146.27;90.83;32880.69;5106137;28;20020;-70
2023/12/13 05:56:22;;;;;;;29.95;11.63;;;;;;;-146.27;90.99;32886.63;5100663;28;20028;-70
2023/12/13 05:58:47;;;;;;;27.45;11.65;;;;;;;-146.27;90.91;32868.78;5098286;28;20434;-70
2023/12/13 06:01:13;;;;;;;33.83;12.25;;;;;;;-146.27;90.88;32874.75;5098390;28;20028;-69
2023/12/13 06:03:40;;;;;;;29.60;10.40;;;;;;;-146.27;91.22;32860.84;5110988;28;20376;-68
2023/12/13 06:06:06;;;;;;;29.95;11.82;;;;;;;-146.27;90.99;32910.44;5104447;28;20081;-69
2023/12/13 06:08:32;;;;;;;25.85;11.07;;;;;;;-146.27;91.06;32858.88;5084513;28;20500;-69
2023/12/13 06:10:58;;;;;;;25.52;11.60;;;;;;;-146.27;91.13;32843.00;5097229;28;20016;-69
2023/12/13 06:13:24;;;;;;;31.88;10.52;;;;;;;-146.27;91.15;32835.06;5098691;28;20652;-68
2023/12/13 06:15:49;;;;;;;30.48;10.73;;;;;;;-146.27;91.10;32850.94;5103995;28;20098;-69
2023/12/13 06:18:15;;;;;;;27.45;11.05;;;;;;;-146.27;91.33;32850.94;5086934;28;20061;-68
2023/12/13 06:20:40;;;;;;;28.67;11.48;;;;;;;-146.27;91.27;32807.28;5107604;28;20027;-69
2023/12/13 06:23:06;;;;;;;27.05;11.73;;;;;;;-146.27;91.23;32811.25;5111764;28;20137;-69
2023/12/13 06:25:31;;;;;;;26.63;10.90;;;;;;;-146.27;91.25;32799.34;5098395;28;20032;-68
2023/12/13 06:27:57;;;;;;;28.85;12.00;;;;;;;-146.27;91.14;32839.03;5100170;28;20027;-68
2023/12/13 06:30:22;;;;;;;26.80;11.40;;;;;;;-146.27;91.32;32837.03;5088393;28;20059;-68
2023/12/13 06:32:48;;;;;;;25.70;10.63;;;;;;;-146.27;91.47;32852.91;5109040;28;20407;-68
2023/12/13 06:35:14;;;;;;;28.05;11.23;;;;;;;-146.27;91.61;32787.44;5104189;28;20031;-68
2023/12/13 06:37:39;;;;;;;28.10;11.20;;;;;;;-146.27;91.59;32787.44;5099272;28;20027;-69
2023/12/13 06:40:05;;;;;;;28.75;10.38;;;;;;;-146.27;91.46;32829.09;5101401;28;20031;-71
2023/12/13 06:42:31;;;;;;;29.38;11.35;;;;;;;-146.27;91.45;32815.22;5103738;28;20027;-69
2023/12/13 06:44:56;;;;;;;28.80;11.00;;;;;;;-146.27;91.75;32837.03;5110261;28;20403;-69
2023/12/13 06:47:22;;;;;;;28.55;10.40;;;;;;;-146.27;91.42;32755.69;5101466;28;20103;-69
2023/12/13 06:49:47;;;;;;;32.55;11.30;;;;;;;-146.27;91.31;32791.41;5106046;28;20522;-69
2023/12/13 06:52:12;;;;;;;30.33;11.05;;;;;;;-146.27;91.41;32775.53;5105340;28;20019;-68
2023/12/13 06:54:38;;;;;;;34.88;10.93;;;;;;;-146.27;91.17;32765.63;5103256;28;20032;-68
2023/12/13 06:57:04;;;;;;;30.48;11.23;;;;;;;-146.27;91.19;32739.84;5100419;28;20028;-68
2023/12/13 06:59:29;;;;;;;35.78;11.75;;;;;;;-146.27;91.39;32767.59;5102660;28;20510;-69
2023/12/13 07:01:54;;;;;;;31.67;11.38;;;;;;;-146.27;91.33;32787.44;5101146;28;20055;-69
2023/12/13 07:04:20;;;;;;;27.55;10.88;;;;;;;-146.27;91.37;32787.44;5099064;28;20016;-68
2023/12/13 07:06:46;;;;;;;24.42;10.68;;;;;;;-146.27;91.38;32733.88;5099109;28;20054;-69
2023/12/13 07:09:18;;;;;;;30.17;10.32;;;;;;;-146.27;91.12;32775.53;5093045;28;20123;-69
2023/12/13 07:11:43;;;;;;;20.77;9.82;;;;;;;-146.27;91.29;32735.88;5102819;28;20035;-68
2023/12/13 07:14:09;;;;;;;24.05;10.63;;;;;;;-146.27;91.38;32765.63;5094799;28;20019;-69
2023/12/13 07:16:34;;;;;;;31.58;10.95;;;;;;;-146.27;91.66;32727.94;5096988;28;20031;-69
2023/12/13 07:19:00;;;;;;;31.70;10.10;;;;;;;-146.27;91.47;32720.00;5101839;28;20059;-69
2023/12/13 07:21:25;;;;;;;28.13;10.77;;;;;;;-146.27;91.54;32716.03;5110681;28;20035;-67
2023/12/13 07:23:50;;;;;;;23.77;9.88;;;;;;;-146.27;91.37;32741.81;5108381;28;20058;-69
2023/12/13 07:26:16;;;;;;;27.08;10.30;;;;;;;-146.27;91.46;32745.78;5107772;28;20035;-69
2023/12/13 07:28:43;;;;;;;25.48;10.15;;;;;;;-146.27;91.74;32785.47;5093692;28;20107;-69
2023/12/13 07:31:08;;;;;;;38.53;11.52;;;;;;;-146.27;91.63;32733.88;5093928;28;20043;-68
2023/12/13 07:33:38;;;;;;;31.17;10.68;;;;;;;-146.27;91.74;32787.44;5101046;28;20113;-69
2023/12/13 07:36:04;;;;;;;30.17;10.73;;;;;;;-146.27;91.44;32712.06;5092457;28;20035;-69
2023/12/13 07:38:29;;;;;;;27.00;10.88;;;;;;;-146.27;91.18;32735.88;5092718;28;20016;-69
2023/12/13 07:40:54;;;;;;;29.63;11.63;;;;;;;-146.27;91.22;32723.97;5093279;28;20218;-69
2023/12/13 07:43:20;;;;;;;27.58;11.68;;;;;;;-146.27;91.23;32688.25;5074762;28;20034;-68
2023/12/13 07:45:51;;;;;;;24.95;11.48;;;;;;;-146.27;91.26;32700.16;5092320;28;20032;-69
2023/12/13 07:48:18;;;;;;;32.03;11.07;;;;;;;-146.27;91.32;32712.06;5094257;28;20034;-68
2023/12/13 07:50:44;;;;;;;29.85;11.23;;;;;;;-146.27;91.04;32710.06;5096882;28;20020;-69
2023/12/13 07:53:09;;;;;;;26.48;11.63;;;;;;;-146.27;91.13;32700.16;5092146;28;20073;-69
2023/12/13 07:55:34;;;;;;;28.00;11.70;;;;;;;-146.27;91.35;32749.75;5083558;28;20036;-69
2023/12/13 07:57:59;;;;;;;26.88;11.50;;;;;;;-146.27;91.21;32731.91;5092622;28;20016;-69
2023/12/13 08:00:25;;;;;;;29.70;12.60;;;;;;;-146.27;91.17;32680.31;5097230;28;20498;-69
2023/12/13 08:02:50;;;;;;;28.48;10.73;;;;;;;-146.27;91.21;32692.22;5105110;28;20034;-69
2023/12/13 08:05:17;;;;;;;24.02;11.65;;;;;;;-146.27;91.16;32692.22;5098006;28;20107;-68
2023/12/13 08:07:43;;;;;;;31.75;11.18;;;;;;;-146.27;91.20;32628.75;5091981;28;20020;-68
2023/12/13 08:10:08;;;;;;;27.65;13.00;;;;;;;-146.27;91.21;32704.13;5079129;28;20038;-69
2023/12/13 08:12:34;;;;;;;32.05;11.55;;;;;;;-146.27;91.31;32565.25;5097008;28;20062;-69
2023/12/13 08:15:00;;;;;;;26.45;11.63;;;;;;;-146.27;91.21;32644.63;5091778;28;20051;-67
2023/12/13 08:17:25;;;;;;;31.90;12.10;;;;;;;-146.27;91.23;32636.69;5096791;28;20432;-68
2023/12/13 08:19:51;;;;;;;33.15;12.18;;;;;;;-146.27;91.23;32682.31;5082983;28;20055;-68
2023/12/13 08:22:16;;;;;;;36.58;12.02;;;;;;;-146.27;91.24;32672.38;5093130;28;20028;-68
2023/12/13 08:24:43;;;;;;;28.10;11.45;;;;;;;-146.27;91.35;32680.31;5102453;28;20060;-68
2023/12/13 08:27:08;;;;;;;29.73;11.55;;;;;;;-146.27;91.23;32684.28;5091877;28;20028;-68
2023/12/13 08:29:34;;;;;;;30.02;12.18;;;;;;;-146.27;91.27;32652.53;5092732;28;20109;-68
2023/12/13 08:31:59;;;;;;;32.53;12.52;;;;;;;-146.27;91.24;32670.41;5091627;28;20060;-69
2023/12/13 08:34:24;;;;;;;35.08;13.15;;;;;;;-146.27;91.19;32640.66;5097448;28;20018;-68
2023/12/13 08:36:51;;;;;;;32.92;12.77;;;;;;;-146.27;91.15;32589.06;5096599;28;20023;-68
2023/12/13 08:39:16;;;;;;;29.00;11.30;;;;;;;-146.27;91.12;32626.75;5090784;28;20552;-68
2023/12/13 08:41:41;;;;;;;33.88;12.13;;;;;;;-146.27;91.32;32620.81;5091457;28;20059;-67
2023/12/13 08:44:07;;;;;;;32.60;11.52;;;;;;;-146.27;91.16;32604.94;5090415;28;20020;-66
2023/12/13 08:46:32;;;;;;;31.17;12.80;;;;;;;-146.27;91.18;32612.88;5091096;28;20028;-69
2023/12/13 08:48:58;;;;;;;37.17;11.77;;;;;;;-146.27;91.37;32577.16;5077853;28;20078;-68
2023/12/13 08:51:23;;;;;;;27.35;11.80;;;;;;;-146.27;91.23;32579.16;5073240;28;20084;-66
2023/12/13 08:53:54;;;;;;;28.20;12.02;;;;;;;-146.27;91.26;32579.16;5095835;28;20102;-67
2023/12/13 08:56:19;;;;;;;31.27;11.85;;;;;;;-146.27;91.16;32620.81;5101953;28;20668;-69
2023/12/13 08:58:45;;;;;;;34.40;12.63;;;;;;;-146.27;91.16;32565.25;5111303;28;20026;-68
2023/12/13 09:01:10;;;;;;;32.83;11.95;;;;;;;-146.27;91.13;32585.09;5096610;28;20020;-68
2023/12/13 09:03:35;;;;;;;32.22;12.32;;;;;;;-146.27;90.96;32581.13;5111017;28;20023;-67
2023/12/13 09:06:01;;;;;;;33.38;12.20;;;;;;;-146.27;91.04;32575.19;5107160;28;20423;-68
2023/12/13 09:08:26;;;;;;;27.60;12.55;;;;;;;-146.27;90.96;32549.38;5090965;28;20020;-66
2023/12/13 09:10:52;;;;;;;32.72;12.18;;;;;;;-146.27;90.93;32577.16;5102062;28;20020;-67
2023/12/13 09:13:17;;;;;;;33.95;12.90;;;;;;;-146.27;90.93;32571.22;5092157;28;20498;-67
2023/12/13 09:15:42;;;;;;;33.13;12.23;;;;;;;-146.27;90.93;32529.56;5094167;28;20023;-67
2023/12/13 09:18:08;;;;;;;30.48;12.85;;;;;;;-146.27;90.96;32533.53;5107308;28;20593;-67
2023/12/13 09:20:34;;;;;;;36.05;12.27;;;;;;;-146.27;90.91;32541.47;5094938;28;21328;-67
2023/12/13 09:22:59;;;;;;;38.28;13.07;;;;;;;-146.27;91.02;32553.34;5104440;28;20046;-68
2023/12/13 09:25:27;;;;;;;32.97;12.90;;;;;;;-146.27;90.93;32537.50;5085411;28;20032;-68
2023/12/13 09:27:52;;;;;;;27.48;12.20;;;;;;;-146.27;90.93;32501.78;5101757;28;20099;-67
2023/12/13 09:30:18;;;;;;;37.45;13.80;;;;;;;-146.27;90.85;32485.91;5088856;28;20048;-68
2023/12/13 09:32:44;;;;;;;33.08;12.85;;;;;;;-146.27;90.87;32491.88;5090481;28;20052;-67
2023/12/13 09:35:10;;;;;;;39.30;13.32;;;;;;;-146.27;90.67;32491.88;5090730;28;20024;-67
2023/12/13 09:37:37;;;;;;;33.63;12.25;;;;;;;-146.27;90.74;32472.03;5103356;28;20016;-66
2023/12/13 09:40:03;;;;;;;38.65;12.73;;;;;;;-146.27;90.73;32493.84;5096298;28;20031;-68
2023/12/13 09:42:29;;;;;;;35.17;13.57;;;;;;;-146.27;90.81;32462.09;5099664;28;20028;-68
2023/12/13 09:44:55;;;;;;;25.75;12.05;;;;;;;-146.27;90.72;32422.44;5100452;28;20062;-68
2023/12/13 09:47:22;;;;;;;41.13;14.00;;;;;;;-146.27;90.65;32448.22;5096403;28;20020;-68
2023/12/13 09:49:49;;;;;;;36.20;12.10;;;;;;;-146.27;90.68;32474.00;5106907;28;20015;-67
2023/12/13 09:52:20;;;;;;;29.85;12.02;;;;;;;-146.27;90.67;32470.03;5078568;28;20383;-68
2023/12/13 09:54:46;;;;;;;30.65;11.80;;;;;;;-146.27;90.34;32462.09;5090569;28;20018;-67
2023/12/13 09:57:12;;;;;;;33.70;13.52;;;;;;;-146.27;90.19;32424.41;5080758;28;20038;-69
2023/12/13 09:59:38;;;;;;;34.03;12.30;;;;;;;-146.27;90.08;32418.47;5106127;28;20019;-68
2023/12/13 10:02:10;;;;;;;32.13;12.90;;;;;;;-146.27;90.23;32412.50;5108948;28;20051;-68
2023/12/13 10:04:36;;;;;;;30.25;11.02;;;;;;;-146.27;90.05;32440.28;5074578;28;20028;-67
2023/12/13 10:07:04;;;;;;;31.08;11.77;;;;;;;-146.27;90.03;32438.31;5089902;28;20081;-67
2023/12/13 10:09:31;;;;;;;31.45;11.43;;;;;;;-146.27;89.91;32420.44;5103064;28;20034;-69
2023/12/13 10:11:58;;;;;;;34.75;10.90;;;;;;;-146.27;89.86;32410.53;5090645;28;20035;-68
2023/12/13 10:14:24;;;;;;;28.75;12.07;;;;;;;-146.27;89.87;32410.53;5092750;28;20395;-67
2023/12/13 10:16:49;;;;;;;28.13;11.10;;;;;;;-146.27;89.62;32446.25;5098120;28;20032;-69
2023/12/13 10:19:16;;;;;;;36.15;12.25;;;;;;;-146.27;89.69;32497.81;5098456;28;20020;-69
2023/12/13 10:21:41;;;;;;;28.77;12.93;;;;;;;-146.27;89.59;32448.22;5097243;28;20560;-69
2023/12/13 10:24:07;;;;;;;34.67;13.07;;;;;;;-146.27;89.46;32410.53;5105567;28;20023;-69
2023/12/13 10:26:36;;;;;;;33.05;12.98;;;;;;;-146.27;89.46;32404.59;5096540;28;20111;-69
2023/12/13 10:29:02;;;;;;;32.75;12.98;;;;;;;-146.27;88.95;32462.09;5094665;28;20471;-68
2023/12/13 10:31:28;;;;;;;27.92;12.45;;;;;;;-146.27;88.81;32378.78;5091727;28;20101;-68
2023/12/13 10:33:53;;;;;;;34.40;13.48;;;;;;;-146.27;88.73;32374.81;5099244;28;20480;-68
2023/12/13 10:36:20;;;;;;;39.00;13.13;;;;;;;-146.27;88.60;32426.41;5110034;27;20557;-68
2023/12/13 10:38:47;;;;;;;33.47;12.98;;;;;;;-146.27;88.63;32428.38;5131966;27;20274;-69
2023/12/13 10:41:14;;;;;;;24.27;12.60;;;;;;;-146.27;88.30;32438.31;5124088;27;20027;-75
2023/12/13 10:43:41;;;;;;;28.40;12.70;;;;;;;-146.27;87.86;32398.63;5115977;27;20079;-67
2023/12/13 10:46:11;;;;;;;36.85;12.93;;;;;;;-146.27;87.69;32412.50;5126558;27;20032;-69
2023/12/13 10:48:39;;;;;;;25.58;12.13;;;;;;;-146.27;87.79;32426.41;5110240;27;20023;-68
2023/12/13 10:51:06;;;;;;;32.22;13.10;;;;;;;-146.27;87.86;32343.09;5124043;27;20050;-68
2023/12/13 10:53:32;;;;;;;32.55;12.15;;;;;;;-146.27;87.59;32345.06;5116441;27;20050;-68
2023/12/13 10:56:00;;;;;;;28.45;11.57;;;;;;;-146.27;87.65;32351.03;5095682;28;20028;-68
2023/12/13 10:58:26;;;;;;;25.15;12.50;;;;;;;-146.27;87.50;32378.78;5099072;28;20031;-68